sensor_id;sensor_type;location;lat;lon;timestamp;temperature;humidity
16625;DHT22;8426;48.496;9.098;2023-04-06T00:04:21;-0.40;99.90
16625;DHT22;8426;48.496;9.098;2023-04-06T00:09:24;-0.40;99.90
16625;DHT22;8426;48.496;9.098;2023-04-06T00:14:29;-0.50;99.90
16625;DHT22;8426;48.496;9.098;2023-04-06T00:19:32;-0.70;99.90
16625;DHT22;8426;48.496;9.098;2023-04-06T00:24:36;-0.90;99.90
16625;DHT22;8426;48.496;9.098;2023-04-06T00:29:41;-1.10;99.90
16625;DHT22;8426;48.496;9.098;2023-04-06T00:34:44;-1.40;99.90
16625;DHT22;8426;48.496;9.098;2023-04-06T00:39:47;-1.50;99.90
16625;DHT22;8426;48.496;9.098;2023-04-06T00:44:57;-1.40;99.90
16625;DHT22;8426;48.496;9.098;2023-04-06T00:50:00;-1.40;99.90
16625;DHT22;8426;48.496;9.098;2023-04-06T00:55:06;-1.50;99.90
16625;DHT22;8426;48.496;9.098;2023-04-06T01:00:12;-1.50;99.90
16625;DHT22;8426;48.496;9.098;2023-04-06T01:05:16;-1.40;99.90
16625;DHT22;8426;48.496;9.098;2023-04-06T01:10:25;-1.30;99.90
16625;DHT22;8426;48.496;9.098;2023-04-06T01:15:31;-1.30;99.90
16625;DHT22;8426;48.496;9.098;2023-04-06T01:20:35;-1.30;99.90
16625;DHT22;8426;48.496;9.098;2023-04-06T01:25:40;-1.40;99.90
16625;DHT22;8426;48.496;9.098;2023-04-06T01:30:43;-1.60;99.90
16625;DHT22;8426;48.496;9.098;2023-04-06T01:35:47;-1.70;99.90
16625;DHT22;8426;48.496;9.098;2023-04-06T01:40:53;-1.70;99.90
16625;DHT22;8426;48.496;9.098;2023-04-06T01:45:57;-1.80;99.90
16625;DHT22;8426;48.496;9.098;2023-04-06T01:51:02;-1.90;99.90
16625;DHT22;8426;48.496;9.098;2023-04-06T01:56:07;-2.00;99.90
16625;DHT22;8426;48.496;9.098;2023-04-06T02:01:10;-2.00;99.90
16625;DHT22;8426;48.496;9.098;2023-04-06T02:06:14;-1.90;99.90
16625;DHT22;8426;48.496;9.098;2023-04-06T02:11:18;-2.10;99.90
16625;DHT22;8426;48.496;9.098;2023-04-06T02:16:22;-2.10;99.90
16625;DHT22;8426;48.496;9.098;2023-04-06T02:21:25;-2.00;99.90
16625;DHT22;8426;48.496;9.098;2023-04-06T02:26:31;-2.00;99.90
16625;DHT22;8426;48.496;9.098;2023-04-06T02:31:34;-2.00;99.90
16625;DHT22;8426;48.496;9.098;2023-04-06T02:36:37;-2.10;99.90
16625;DHT22;8426;48.496;9.098;2023-04-06T02:41:42;-2.10;99.90
16625;DHT22;8426;48.496;9.098;2023-04-06T02:46:45;-2.20;99.90
16625;DHT22;8426;48.496;9.098;2023-04-06T02:51:49;-2.20;99.90
16625;DHT22;8426;48.496;9.098;2023-04-06T02:56:54;-2.20;99.90
16625;DHT22;8426;48.496;9.098;2023-04-06T03:01:57;-2.10;99.90
16625;DHT22;8426;48.496;9.098;2023-04-06T03:07:00;-2.00;99.90
16625;DHT22;8426;48.496;9.098;2023-04-06T03:12:06;-2.00;99.90
16625;DHT22;8426;48.496;9.098;2023-04-06T03:17:11;-2.00;99.90
16625;DHT22;8426;48.496;9.098;2023-04-06T03:22:14;-2.10;99.90
16625;DHT22;8426;48.496;9.098;2023-04-06T03:27:19;-2.30;99.90
16625;DHT22;8426;48.496;9.098;2023-04-06T03:32:25;-2.40;99.90
16625;DHT22;8426;48.496;9.098;2023-04-06T03:37:29;-2.40;99.90
16625;DHT22;8426;48.496;9.098;2023-04-06T03:42:33;-2.40;99.90
16625;DHT22;8426;48.496;9.098;2023-04-06T03:47:37;-2.50;99.90
16625;DHT22;8426;48.496;9.098;2023-04-06T03:52:40;-2.60;99.90
16625;DHT22;8426;48.496;9.098;2023-04-06T03:57:45;-2.70;99.90
16625;DHT22;8426;48.496;9.098;2023-04-06T04:02:48;-2.70;99.90
16625;DHT22;8426;48.496;9.098;2023-04-06T04:07:52;-2.70;99.90
16625;DHT22;8426;48.496;9.098;2023-04-06T04:12:56;-2.80;99.90
16625;DHT22;8426;48.496;9.098;2023-04-06T04:18:00;-2.90;99.90
16625;DHT22;8426;48.496;9.098;2023-04-06T04:23:03;-3.00;99.90
16625;DHT22;8426;48.496;9.098;2023-04-06T04:28:11;-3.10;99.90
16625;DHT22;8426;48.496;9.098;2023-04-06T04:33:14;-3.10;99.90
16625;DHT22;8426;48.496;9.098;2023-04-06T04:38:18;-3.10;99.90
16625;DHT22;8426;48.496;9.098;2023-04-06T04:43:23;-3.10;99.90
16625;DHT22;8426;48.496;9.098;2023-04-06T04:48:26;-3.10;99.90
16625;DHT22;8426;48.496;9.098;2023-04-06T04:53:29;-3.10;99.90
16625;DHT22;8426;48.496;9.098;2023-04-06T04:58:34;-3.20;99.90
16625;DHT22;8426;48.496;9.098;2023-04-06T05:03:37;-3.10;99.90
16625;DHT22;8426;48.496;9.098;2023-04-06T05:08:42;-3.00;99.90
16625;DHT22;8426;48.496;9.098;2023-04-06T05:13:46;-2.90;99.90
16625;DHT22;8426;48.496;9.098;2023-04-06T05:18:50;-2.80;99.90
16625;DHT22;8426;48.496;9.098;2023-04-06T05:23:54;-2.70;99.90
16625;DHT22;8426;48.496;9.098;2023-04-06T05:29:00;-2.60;99.90
16625;DHT22;8426;48.496;9.098;2023-04-06T05:34:03;-2.50;99.90
16625;DHT22;8426;48.496;9.098;2023-04-06T05:39:07;-2.40;99.90
16625;DHT22;8426;48.496;9.098;2023-04-06T05:44:12;-2.20;99.90
16625;DHT22;8426;48.496;9.098;2023-04-06T05:49:23;-2.00;99.90
16625;DHT22;8426;48.496;9.098;2023-04-06T05:54:29;-1.80;99.90
16625;DHT22;8426;48.496;9.098;2023-04-06T05:59:33;-1.50;99.90
16625;DHT22;8426;48.496;9.098;2023-04-06T06:04:37;-1.10;99.90
16625;DHT22;8426;48.496;9.098;2023-04-06T06:09:43;-0.80;99.90
16625;DHT22;8426;48.496;9.098;2023-04-06T06:14:48;-0.50;99.90
16625;DHT22;8426;48.496;9.098;2023-04-06T06:19:52;-0.20;99.90
16625;DHT22;8426;48.496;9.098;2023-04-06T06:25:04;0.20;99.90
16625;DHT22;8426;48.496;9.098;2023-04-06T06:30:09;0.50;99.90
16625;DHT22;8426;48.496;9.098;2023-04-06T06:35:19;0.70;99.90
16625;DHT22;8426;48.496;9.098;2023-04-06T06:40:24;1.00;99.90
16625;DHT22;8426;48.496;9.098;2023-04-06T06:45:34;2.30;99.90
16625;DHT22;8426;48.496;9.098;2023-04-06T06:50:38;7.50;99.90
16625;DHT22;8426;48.496;9.098;2023-04-06T06:55:42;12.00;99.90
16625;DHT22;8426;48.496;9.098;2023-04-06T07:00:47;15.00;97.20
16625;DHT22;8426;48.496;9.098;2023-04-06T07:05:56;16.00;92.10
16625;DHT22;8426;48.496;9.098;2023-04-06T07:11:00;15.60;91.10
16625;DHT22;8426;48.496;9.098;2023-04-06T07:16:09;17.10;89.90
16625;DHT22;8426;48.496;9.098;2023-04-06T07:21:14;16.90;86.70
16625;DHT22;8426;48.496;9.098;2023-04-06T07:26:18;16.60;84.70
16625;DHT22;8426;48.496;9.098;2023-04-06T07:31:23;17.00;85.90
16625;DHT22;8426;48.496;9.098;2023-04-06T07:36:27;15.30;87.00
16625;DHT22;8426;48.496;9.098;2023-04-06T07:41:30;15.10;87.10
16625;DHT22;8426;48.496;9.098;2023-04-06T07:46:36;15.60;89.00
16625;DHT22;8426;48.496;9.098;2023-04-06T07:51:39;16.80;87.10
16625;DHT22;8426;48.496;9.098;2023-04-06T07:56:43;17.40;84.80
16625;DHT22;8426;48.496;9.098;2023-04-06T08:01:49;18.60;80.00
16625;DHT22;8426;48.496;9.098;2023-04-06T08:06:53;18.40;80.20
16625;DHT22;8426;48.496;9.098;2023-04-06T08:11:57;18.20;85.40
16625;DHT22;8426;48.496;9.098;2023-04-06T08:17:01;18.00;83.70
16625;DHT22;8426;48.496;9.098;2023-04-06T08:22:07;17.90;85.80
16625;DHT22;8426;48.496;9.098;2023-04-06T08:27:12;18.50;84.20
16625;DHT22;8426;48.496;9.098;2023-04-06T08:32:18;18.70;80.70
16625;DHT22;8426;48.496;9.098;2023-04-06T08:37:22;17.70;81.80
16625;DHT22;8426;48.496;9.098;2023-04-06T08:42:28;18.10;81.30
16625;DHT22;8426;48.496;9.098;2023-04-06T08:47:36;16.90;84.40
16625;DHT22;8426;48.496;9.098;2023-04-06T08:52:40;16.50;85.50
16625;DHT22;8426;48.496;9.098;2023-04-06T08:57:46;17.80;81.60
16625;DHT22;8426;48.496;9.098;2023-04-06T09:02:54;16.70;83.40
16625;DHT22;8426;48.496;9.098;2023-04-06T09:07:58;18.60;79.90
16625;DHT22;8426;48.496;9.098;2023-04-06T09:13:05;18.50;79.30
16625;DHT22;8426;48.496;9.098;2023-04-06T09:18:28;17.90;79.70
16625;DHT22;8426;48.496;9.098;2023-04-06T09:23:32;18.50;79.60
16625;DHT22;8426;48.496;9.098;2023-04-06T09:28:51;17.90;81.00
16625;DHT22;8426;48.496;9.098;2023-04-06T09:34:01;17.10;85.00
16625;DHT22;8426;48.496;9.098;2023-04-06T09:39:05;17.60;79.30
16625;DHT22;8426;48.496;9.098;2023-04-06T09:44:11;18.20;81.50
16625;DHT22;8426;48.496;9.098;2023-04-06T09:49:18;17.90;81.80
16625;DHT22;8426;48.496;9.098;2023-04-06T09:54:27;17.60;80.40
16625;DHT22;8426;48.496;9.098;2023-04-06T09:59:37;17.30;81.10
16625;DHT22;8426;48.496;9.098;2023-04-06T10:04:46;16.90;77.30
16625;DHT22;8426;48.496;9.098;2023-04-06T10:09:53;16.10;78.10
16625;DHT22;8426;48.496;9.098;2023-04-06T10:14:59;15.80;74.20
16625;DHT22;8426;48.496;9.098;2023-04-06T10:20:09;15.00;72.70
16625;DHT22;8426;48.496;9.098;2023-04-06T10:25:13;14.50;83.10
16625;DHT22;8426;48.496;9.098;2023-04-06T10:30:17;14.50;90.10
16625;DHT22;8426;48.496;9.098;2023-04-06T10:35:24;14.30;87.10
16625;DHT22;8426;48.496;9.098;2023-04-06T10:40:41;14.20;87.40
16625;DHT22;8426;48.496;9.098;2023-04-06T10:45:55;14.40;79.70
16625;DHT22;8426;48.496;9.098;2023-04-06T10:51:00;14.40;81.30
16625;DHT22;8426;48.496;9.098;2023-04-06T10:56:09;14.30;80.40
16625;DHT22;8426;48.496;9.098;2023-04-06T11:01:15;14.80;85.70
16625;DHT22;8426;48.496;9.098;2023-04-06T11:06:22;14.80;85.00
16625;DHT22;8426;48.496;9.098;2023-04-06T11:11:26;14.50;84.00
16625;DHT22;8426;48.496;9.098;2023-04-06T11:16:31;14.60;77.70
16625;DHT22;8426;48.496;9.098;2023-04-06T11:21:38;14.30;81.80
16625;DHT22;8426;48.496;9.098;2023-04-06T11:26:43;14.40;82.40
16625;DHT22;8426;48.496;9.098;2023-04-06T11:31:49;14.90;87.20
16625;DHT22;8426;48.496;9.098;2023-04-06T11:36:59;15.00;87.80
16625;DHT22;8426;48.496;9.098;2023-04-06T11:42:05;15.10;86.30
16625;DHT22;8426;48.496;9.098;2023-04-06T11:47:11;14.80;87.80
16625;DHT22;8426;48.496;9.098;2023-04-06T11:52:19;14.80;83.50
16625;DHT22;8426;48.496;9.098;2023-04-06T11:57:23;15.00;82.10
16625;DHT22;8426;48.496;9.098;2023-04-06T12:02:27;14.70;82.90
16625;DHT22;8426;48.496;9.098;2023-04-06T12:07:32;14.20;86.50
16625;DHT22;8426;48.496;9.098;2023-04-06T12:12:36;14.50;79.20
16625;DHT22;8426;48.496;9.098;2023-04-06T12:17:40;14.80;78.20
16625;DHT22;8426;48.496;9.098;2023-04-06T12:22:46;14.90;83.40
16625;DHT22;8426;48.496;9.098;2023-04-06T12:27:50;14.60;85.30
16625;DHT22;8426;48.496;9.098;2023-04-06T12:32:54;14.90;82.80
16625;DHT22;8426;48.496;9.098;2023-04-06T12:38:01;14.70;81.10
16625;DHT22;8426;48.496;9.098;2023-04-06T12:43:05;14.80;86.60
16625;DHT22;8426;48.496;9.098;2023-04-06T12:48:08;15.00;83.10
16625;DHT22;8426;48.496;9.098;2023-04-06T12:53:13;14.80;81.10
16625;DHT22;8426;48.496;9.098;2023-04-06T12:58:16;14.90;80.50
16625;DHT22;8426;48.496;9.098;2023-04-06T13:03:20;15.00;79.40
16625;DHT22;8426;48.496;9.098;2023-04-06T13:08:26;14.90;80.70
16625;DHT22;8426;48.496;9.098;2023-04-06T13:13:30;14.90;80.60
16625;DHT22;8426;48.496;9.098;2023-04-06T13:18:34;15.10;78.00
16625;DHT22;8426;48.496;9.098;2023-04-06T13:23:44;15.40;77.80
16625;DHT22;8426;48.496;9.098;2023-04-06T13:28:48;15.60;79.90
16625;DHT22;8426;48.496;9.098;2023-04-06T13:33:51;15.50;78.60
16625;DHT22;8426;48.496;9.098;2023-04-06T13:38:56;14.80;72.90
16625;DHT22;8426;48.496;9.098;2023-04-06T13:43:59;14.80;71.80
16625;DHT22;8426;48.496;9.098;2023-04-06T13:49:04;14.90;78.80
16625;DHT22;8426;48.496;9.098;2023-04-06T13:54:09;14.90;76.00
16625;DHT22;8426;48.496;9.098;2023-04-06T13:59:12;15.00;76.70
16625;DHT22;8426;48.496;9.098;2023-04-06T14:04:16;15.30;77.00
16625;DHT22;8426;48.496;9.098;2023-04-06T14:09:21;15.30;72.90
16625;DHT22;8426;48.496;9.098;2023-04-06T14:14:25;15.90;71.30
16625;DHT22;8426;48.496;9.098;2023-04-06T14:19:28;15.70;76.80
16625;DHT22;8426;48.496;9.098;2023-04-06T14:24:33;15.40;77.20
16625;DHT22;8426;48.496;9.098;2023-04-06T14:29:37;15.60;73.50
16625;DHT22;8426;48.496;9.098;2023-04-06T14:34:41;15.30;71.10
16625;DHT22;8426;48.496;9.098;2023-04-06T14:39:47;15.60;76.30
16625;DHT22;8426;48.496;9.098;2023-04-06T14:44:50;15.30;73.30
16625;DHT22;8426;48.496;9.098;2023-04-06T14:49:55;14.90;77.00
16625;DHT22;8426;48.496;9.098;2023-04-06T14:55:00;14.40;77.50
16625;DHT22;8426;48.496;9.098;2023-04-06T15:00:08;14.60;75.50
16625;DHT22;8426;48.496;9.098;2023-04-06T15:05:12;14.50;72.30
16625;DHT22;8426;48.496;9.098;2023-04-06T15:10:17;14.40;73.30
16625;DHT22;8426;48.496;9.098;2023-04-06T15:15:21;14.60;79.30
16625;DHT22;8426;48.496;9.098;2023-04-06T15:20:26;14.60;81.50
16625;DHT22;8426;48.496;9.098;2023-04-06T15:25:30;14.40;81.40
16625;DHT22;8426;48.496;9.098;2023-04-06T15:30:35;14.30;81.80
16625;DHT22;8426;48.496;9.098;2023-04-06T15:35:38;14.20;82.50
16625;DHT22;8426;48.496;9.098;2023-04-06T15:40:46;14.00;85.20
16625;DHT22;8426;48.496;9.098;2023-04-06T15:45:50;13.60;82.80
16625;DHT22;8426;48.496;9.098;2023-04-06T15:50:56;13.40;85.70
16625;DHT22;8426;48.496;9.098;2023-04-06T15:56:02;13.20;84.80
16625;DHT22;8426;48.496;9.098;2023-04-06T16:01:13;13.00;87.20
16625;DHT22;8426;48.496;9.098;2023-04-06T16:06:17;13.00;89.90
16625;DHT22;8426;48.496;9.098;2023-04-06T16:11:22;13.10;88.30
16625;DHT22;8426;48.496;9.098;2023-04-06T16:16:25;12.90;88.00
16625;DHT22;8426;48.496;9.098;2023-04-06T16:21:29;12.90;90.30
16625;DHT22;8426;48.496;9.098;2023-04-06T16:26:34;12.70;88.70
16625;DHT22;8426;48.496;9.098;2023-04-06T16:31:37;12.50;87.60
16625;DHT22;8426;48.496;9.098;2023-04-06T16:36:42;12.30;89.70
16625;DHT22;8426;48.496;9.098;2023-04-06T16:41:48;12.10;89.30
16625;DHT22;8426;48.496;9.098;2023-04-06T16:46:51;11.80;88.40
16625;DHT22;8426;48.496;9.098;2023-04-06T16:51:55;11.60;88.40
16625;DHT22;8426;48.496;9.098;2023-04-06T16:57:05;11.40;87.80
16625;DHT22;8426;48.496;9.098;2023-04-06T17:02:09;11.20;88.20
16625;DHT22;8426;48.496;9.098;2023-04-06T17:07:12;11.10;88.90
16625;DHT22;8426;48.496;9.098;2023-04-06T17:12:18;11.00;88.30
16625;DHT22;8426;48.496;9.098;2023-04-06T17:17:23;10.80;87.80
16625;DHT22;8426;48.496;9.098;2023-04-06T17:22:26;10.70;87.70
16625;DHT22;8426;48.496;9.098;2023-04-06T17:27:31;10.60;87.30
16625;DHT22;8426;48.496;9.098;2023-04-06T17:32:34;10.50;88.00
16625;DHT22;8426;48.496;9.098;2023-04-06T17:37:38;10.30;88.00
16625;DHT22;8426;48.496;9.098;2023-04-06T17:42:46;10.20;86.90
16625;DHT22;8426;48.496;9.098;2023-04-06T17:47:50;10.00;85.10
16625;DHT22;8426;48.496;9.098;2023-04-06T17:52:53;9.90;85.60
16625;DHT22;8426;48.496;9.098;2023-04-06T17:57:58;9.80;86.70
16625;DHT22;8426;48.496;9.098;2023-04-06T18:03:01;9.70;88.40
16625;DHT22;8426;48.496;9.098;2023-04-06T18:08:05;9.60;88.50
16625;DHT22;8426;48.496;9.098;2023-04-06T18:13:10;9.60;89.40
16625;DHT22;8426;48.496;9.098;2023-04-06T18:18:13;9.40;90.10
16625;DHT22;8426;48.496;9.098;2023-04-06T18:23:19;9.30;90.10
16625;DHT22;8426;48.496;9.098;2023-04-06T18:28:24;9.20;91.20
16625;DHT22;8426;48.496;9.098;2023-04-06T18:33:27;9.10;91.90
16625;DHT22;8426;48.496;9.098;2023-04-06T18:38:31;9.00;92.10
16625;DHT22;8426;48.496;9.098;2023-04-06T18:43:35;8.90;92.50
16625;DHT22;8426;48.496;9.098;2023-04-06T18:48:40;8.90;92.60
16625;DHT22;8426;48.496;9.098;2023-04-06T18:53:56;8.80;93.50
16625;DHT22;8426;48.496;9.098;2023-04-06T18:59:05;8.70;93.80
16625;DHT22;8426;48.496;9.098;2023-04-06T19:04:10;8.60;94.20
16625;DHT22;8426;48.496;9.098;2023-04-06T19:09:13;8.60;94.30
16625;DHT22;8426;48.496;9.098;2023-04-06T19:14:18;8.60;94.80
16625;DHT22;8426;48.496;9.098;2023-04-06T19:19:22;8.60;95.00
16625;DHT22;8426;48.496;9.098;2023-04-06T19:24:25;8.40;96.30
16625;DHT22;8426;48.496;9.098;2023-04-06T19:35:41;8.30;96.70
16625;DHT22;8426;48.496;9.098;2023-04-06T19:40:44;8.40;97.10
16625;DHT22;8426;48.496;9.098;2023-04-06T19:45:48;8.30;97.70
16625;DHT22;8426;48.496;9.098;2023-04-06T19:50:53;8.30;98.20
16625;DHT22;8426;48.496;9.098;2023-04-06T19:56:21;8.20;99.60
16625;DHT22;8426;48.496;9.098;2023-04-06T20:01:25;8.00;99.90
16625;DHT22;8426;48.496;9.098;2023-04-06T20:06:30;7.90;99.90
16625;DHT22;8426;48.496;9.098;2023-04-06T20:11:34;7.90;99.90
16625;DHT22;8426;48.496;9.098;2023-04-06T20:16:41;7.80;99.90
16625;DHT22;8426;48.496;9.098;2023-04-06T20:21:48;7.70;99.90
16625;DHT22;8426;48.496;9.098;2023-04-06T20:26:51;7.60;99.90
16625;DHT22;8426;48.496;9.098;2023-04-06T20:31:54;7.60;99.90
16625;DHT22;8426;48.496;9.098;2023-04-06T20:36:59;7.40;99.90
16625;DHT22;8426;48.496;9.098;2023-04-06T20:42:03;7.30;99.90
16625;DHT22;8426;48.496;9.098;2023-04-06T20:47:08;7.20;99.90
16625;DHT22;8426;48.496;9.098;2023-04-06T20:52:13;7.10;99.90
16625;DHT22;8426;48.496;9.098;2023-04-06T20:57:17;7.00;99.90
16625;DHT22;8426;48.496;9.098;2023-04-06T21:02:20;7.00;99.90
16625;DHT22;8426;48.496;9.098;2023-04-06T21:07:26;7.00;99.90
16625;DHT22;8426;48.496;9.098;2023-04-06T21:12:29;6.90;99.90
16625;DHT22;8426;48.496;9.098;2023-04-06T21:17:45;6.80;99.90
16625;DHT22;8426;48.496;9.098;2023-04-06T21:22:50;6.70;99.90
16625;DHT22;8426;48.496;9.098;2023-04-06T21:27:53;6.60;99.90
16625;DHT22;8426;48.496;9.098;2023-04-06T21:32:57;6.50;99.90
16625;DHT22;8426;48.496;9.098;2023-04-06T21:38:02;6.40;99.90
16625;DHT22;8426;48.496;9.098;2023-04-06T21:43:06;6.30;99.90
16625;DHT22;8426;48.496;9.098;2023-04-06T21:48:09;6.20;99.90
16625;DHT22;8426;48.496;9.098;2023-04-06T21:59:08;6.20;99.90
16625;DHT22;8426;48.496;9.098;2023-04-06T22:04:11;6.10;99.90
16625;DHT22;8426;48.496;9.098;2023-04-06T22:09:15;6.10;99.90
16625;DHT22;8426;48.496;9.098;2023-04-06T22:14:20;6.10;99.90
16625;DHT22;8426;48.496;9.098;2023-04-06T22:19:23;6.00;99.90
16625;DHT22;8426;48.496;9.098;2023-04-06T22:24:29;6.00;99.90
16625;DHT22;8426;48.496;9.098;2023-04-06T22:29:34;6.00;99.90
16625;DHT22;8426;48.496;9.098;2023-04-06T22:34:38;5.90;99.90
16625;DHT22;8426;48.496;9.098;2023-04-06T22:40:19;6.00;99.90
16625;DHT22;8426;48.496;9.098;2023-04-06T22:45:24;6.00;99.90
16625;DHT22;8426;48.496;9.098;2023-04-06T22:50:27;6.00;99.90
16625;DHT22;8426;48.496;9.098;2023-04-06T22:55:31;5.90;99.90
16625;DHT22;8426;48.496;9.098;2023-04-06T23:00:37;5.90;99.90
16625;DHT22;8426;48.496;9.098;2023-04-06T23:05:40;5.90;99.90
16625;DHT22;8426;48.496;9.098;2023-04-06T23:10:44;5.90;99.90
16625;DHT22;8426;48.496;9.098;2023-04-06T23:15:51;5.80;99.90
16625;DHT22;8426;48.496;9.098;2023-04-06T23:21:04;5.80;99.90
16625;DHT22;8426;48.496;9.098;2023-04-06T23:26:08;5.80;99.90
16625;DHT22;8426;48.496;9.098;2023-04-06T23:31:37;5.70;99.90
16625;DHT22;8426;48.496;9.098;2023-04-06T23:42:14;5.70;99.90
16625;DHT22;8426;48.496;9.098;2023-04-06T23:47:44;5.70;99.90
16625;DHT22;8426;48.496;9.098;2023-04-06T23:53:01;5.60;99.90
16625;DHT22;8426;48.496;9.098;2023-04-06T23:58:09;5.50;99.90
